Time;durP1;ratioP1;P1;durP2;ratioP2;P2;SDS_P1;SDS_P2;PMS_P1;PMS_P2;Temp;Humidity;BMP_temperature;BMP_pressure;BME280_temperature;BME280_humidity;BME280_pressure;Samples;Min_cycle;Max_cycle;Signal;HPM_P1;HPM_P2
2022/04/16 00:01:17;;;;;;;;;1.25;0.00;;;;;;;;5079381;27;51138;-46
2022/04/16 00:04:01;;;;;;;;;0.00;0.00;;;;;;;;5079625;27;51411;-47
2022/04/16 00:06:46;;;;;;;;;0.00;0.00;;;;;;;;5079382;27;51058;-50
2022/04/16 00:09:30;;;;;;;;;0.00;0.00;;;;;;;;5078360;28;51233;-47
2022/04/16 00:12:15;;;;;;;;;1.75;0.00;;;;;;;;5079428;28;51260;-47
2022/04/16 00:15:00;;;;;;;;;2.75;0.00;;;;;;;;5079085;28;51001;-50
2022/04/16 00:17:44;;;;;;;;;1.75;0.00;;;;;;;;5079828;28;51150;-46
2022/04/16 00:20:29;;;;;;;;;0.00;0.00;;;;;;;;5079657;28;51123;-47
2022/04/16 00:23:14;;;;;;;;;0.00;0.00;;;;;;;;5079422;28;51020;-47
2022/04/16 00:25:58;;;;;;;;;2.00;0.50;;;;;;;;5079183;28;51186;-46
2022/04/16 00:28:42;;;;;;;;;0.50;0.00;;;;;;;;5079753;28;51103;-50
2022/04/16 00:31:28;;;;;;;;;0.50;0.00;;;;;;;;5079394;28;51971;-49
2022/04/16 00:34:14;;;;;;;;;0.00;0.00;;;;;;;;5078944;28;51086;-47
2022/04/16 00:36:59;;;;;;;;;0.00;0.00;;;;;;;;5079256;28;51365;-50
2022/04/16 00:39:43;;;;;;;;;0.00;0.00;;;;;;;;5079151;28;51065;-49
2022/04/16 00:42:32;;;;;;;;;2.00;0.00;;;;;;;;5079443;28;51054;-48
2022/04/16 00:45:16;;;;;;;;;0.00;0.00;;;;;;;;5080696;27;51145;-48
2022/04/16 00:48:00;;;;;;;;;1.00;0.00;;;;;;;;5083225;27;51367;-49
2022/04/16 00:50:45;;;;;;;;;2.00;1.00;;;;;;;;5083008;27;51090;-46
2022/04/16 00:53:29;;;;;;;;;3.75;0.50;;;;;;;;5083426;27;51079;-48
2022/04/16 00:56:14;;;;;;;;;1.00;0.00;;;;;;;;5067252;27;51070;-49
2022/04/16 00:58:58;;;;;;;;;1.25;0.00;;;;;;;;5082960;27;51061;-49
2022/04/16 01:01:42;;;;;;;;;1.75;0.50;;;;;;;;5083065;27;51099;-47
2022/04/16 01:04:27;;;;;;;;;2.25;1.00;;;;;;;;5082786;27;51044;-48
2022/04/16 01:07:11;;;;;;;;;0.75;0.00;;;;;;;;5082882;27;51019;-47
2022/04/16 01:09:56;;;;;;;;;1.00;0.00;;;;;;;;5082947;27;50980;-49
2022/04/16 01:12:40;;;;;;;;;1.00;0.00;;;;;;;;5082756;27;51112;-48
2022/04/16 01:15:25;;;;;;;;;1.50;0.75;;;;;;;;5082445;27;51738;-48
2022/04/16 01:18:12;;;;;;;;;0.75;0.00;;;;;;;;5082909;27;51088;-49
2022/04/16 01:20:56;;;;;;;;;0.75;0.00;;;;;;;;5082699;27;51534;-46
2022/04/16 01:23:42;;;;;;;;;1.50;0.50;;;;;;;;5082316;27;51222;-48
2022/04/16 01:26:27;;;;;;;;;1.00;0.00;;;;;;;;5082345;27;51487;-47
2022/04/16 01:29:11;;;;;;;;;1.00;0.00;;;;;;;;5082533;27;51085;-47
2022/04/16 01:31:56;;;;;;;;;0.00;0.00;;;;;;;;5082357;27;51495;-48
2022/04/16 01:34:40;;;;;;;;;0.00;0.00;;;;;;;;5075263;27;52891;-46
2022/04/16 01:37:24;;;;;;;;;1.25;0.00;;;;;;;;5082200;27;51146;-47
2022/04/16 01:40:10;;;;;;;;;1.25;0.00;;;;;;;;5082316;27;51178;-47
2022/04/16 01:42:57;;;;;;;;;0.25;0.00;;;;;;;;5082540;27;51019;-46
2022/04/16 01:45:42;;;;;;;;;1.00;0.00;;;;;;;;5081916;27;51063;-47
2022/04/16 01:48:27;;;;;;;;;0.75;0.00;;;;;;;;5081878;27;51116;-46
2022/04/16 01:51:11;;;;;;;;;0.00;0.00;;;;;;;;5082129;27;51092;-49
2022/04/16 01:53:56;;;;;;;;;0.75;0.00;;;;;;;;5082273;27;51638;-50
2022/04/16 01:56:40;;;;;;;;;1.00;0.00;;;;;;;;5080507;27;51106;-47
2022/04/16 01:59:25;;;;;;;;;2.00;1.25;;;;;;;;5081434;27;51155;-48
2022/04/16 02:02:09;;;;;;;;;0.00;0.00;;;;;;;;5082171;27;51076;-48
2022/04/16 02:04:53;;;;;;;;;0.00;0.00;;;;;;;;5081689;27;50953;-49
2022/04/16 02:07:39;;;;;;;;;0.00;0.00;;;;;;;;5081644;27;51054;-51
2022/04/16 02:10:23;;;;;;;;;0.00;0.00;;;;;;;;5081683;27;51478;-49
2022/04/16 02:13:08;;;;;;;;;1.00;0.00;;;;;;;;5081551;27;51122;-47
2022/04/16 02:15:52;;;;;;;;;1.00;0.00;;;;;;;;5081449;27;51173;-49
2022/04/16 02:18:38;;;;;;;;;0.00;0.00;;;;;;;;5081430;27;51097;-48
2022/04/16 02:21:22;;;;;;;;;1.50;0.00;;;;;;;;5081293;27;51371;-47
2022/04/16 02:24:06;;;;;;;;;0.00;0.00;;;;;;;;5081646;27;51139;-52
2022/04/16 02:26:51;;;;;;;;;1.25;0.00;;;;;;;;5081347;27;51376;-49
2022/04/16 02:29:34;;;;;;;;;0.00;0.00;;;;;;;;5081365;27;51079;-48
2022/04/16 02:32:19;;;;;;;;;0.00;0.00;;;;;;;;5081516;27;51153;-50
2022/04/16 02:35:05;;;;;;;;;0.25;0.00;;;;;;;;5079021;27;51413;-51
2022/04/16 02:37:50;;;;;;;;;0.00;0.00;;;;;;;;5080978;27;51113;-50
2022/04/16 02:40:33;;;;;;;;;0.75;0.75;;;;;;;;5081253;27;51370;-51
2022/04/16 02:43:18;;;;;;;;;2.00;0.00;;;;;;;;5081277;27;51122;-48
2022/04/16 02:49:05;;;;;;;;;0.00;0.00;;;;;;;;5080778;27;51085;-49
2022/04/16 02:51:50;;;;;;;;;1.50;0.00;;;;;;;;5080636;27;51630;-49
2022/04/16 02:54:35;;;;;;;;;0.00;0.00;;;;;;;;5080758;27;51079;-49
2022/04/16 02:57:19;;;;;;;;;0.00;0.00;;;;;;;;5081025;27;51039;-49
2022/04/16 03:00:04;;;;;;;;;0.50;0.00;;;;;;;;5080530;27;51000;-49
2022/04/16 03:02:53;;;;;;;;;1.00;0.75;;;;;;;;5080414;27;51057;-48
2022/04/16 03:05:37;;;;;;;;;1.75;1.75;;;;;;;;5080687;27;51194;-50
2022/04/16 03:08:24;;;;;;;;;3.75;2.75;;;;;;;;5080797;27;51115;-48
2022/04/16 03:11:08;;;;;;;;;3.50;2.75;;;;;;;;5080268;27;51335;-46
2022/04/16 03:13:52;;;;;;;;;2.50;2.50;;;;;;;;5080167;27;51214;-47
2022/04/16 03:19:40;;;;;;;;;5.50;4.00;;;;;;;;5080252;27;51277;-46
2022/04/16 03:22:24;;;;;;;;;11.25;7.75;;;;;;;;5080521;27;51131;-47
2022/04/16 03:25:09;;;;;;;;;8.50;8.00;;;;;;;;5080149;27;51413;-47
2022/04/16 03:27:53;;;;;;;;;10.50;9.00;;;;;;;;5079829;27;51079;-47
2022/04/16 03:30:38;;;;;;;;;7.50;7.50;;;;;;;;5080371;27;51380;-48
2022/04/16 03:33:22;;;;;;;;;11.25;8.50;;;;;;;;5080111;27;51117;-47
2022/04/16 03:36:07;;;;;;;;;12.00;7.75;;;;;;;;5079680;27;51035;-48
2022/04/16 03:38:52;;;;;;;;;13.75;12.75;;;;;;;;5079875;27;51158;-47
2022/04/16 03:41:36;;;;;;;;;24.75;22.25;;;;;;;;5080083;27;51041;-45
2022/04/16 03:44:20;;;;;;;;;29.00;22.75;;;;;;;;5079676;27;51158;-47
2022/04/16 03:47:05;;;;;;;;;18.25;16.00;;;;;;;;5079954;27;51013;-47
2022/04/16 03:49:49;;;;;;;;;13.25;12.25;;;;;;;;5079860;27;51096;-49
2022/04/16 03:52:43;;;;;;;;;12.00;11.50;;;;;;;;5074039;27;51194;-46
2022/04/16 04:01:35;;;;;;;;;10.75;9.75;;;;;;;;5079623;27;50981;-48
2022/04/16 04:04:19;;;;;;;;;14.75;12.50;;;;;;;;5079414;27;51026;-51
2022/04/16 04:07:04;;;;;;;;;14.00;11.25;;;;;;;;5079529;27;51331;-48
2022/04/16 04:09:48;;;;;;;;;12.75;10.00;;;;;;;;5079369;27;51055;-48
2022/04/16 04:12:32;;;;;;;;;13.25;9.00;;;;;;;;5078689;27;51142;-51
2022/04/16 04:15:17;;;;;;;;;9.75;8.25;;;;;;;;5078985;28;51438;-49
2022/04/16 04:18:02;;;;;;;;;11.75;10.25;;;;;;;;5079494;28;51144;-48
2022/04/16 04:20:46;;;;;;;;;9.00;9.00;;;;;;;;5082154;27;51109;-48
2022/04/16 04:23:31;;;;;;;;;9.50;8.75;;;;;;;;5083796;27;51089;-50
2022/04/16 04:26:15;;;;;;;;;10.50;7.75;;;;;;;;5083197;27;51136;-49
2022/04/16 04:28:59;;;;;;;;;10.00;9.25;;;;;;;;5083660;27;51099;-48
2022/04/16 04:31:44;;;;;;;;;10.00;10.00;;;;;;;;5083602;27;51399;-47
2022/04/16 04:34:28;;;;;;;;;13.25;12.25;;;;;;;;5083113;27;51084;-46
2022/04/16 04:37:13;;;;;;;;;8.00;8.00;;;;;;;;5083652;27;50981;-48
2022/04/16 04:39:58;;;;;;;;;7.00;6.00;;;;;;;;5083397;27;51489;-49
2022/04/16 04:42:42;;;;;;;;;5.00;3.75;;;;;;;;5083445;27;51032;-47
2022/04/16 04:45:26;;;;;;;;;4.00;3.00;;;;;;;;5082983;27;50988;-46
2022/04/16 04:48:10;;;;;;;;;5.75;4.25;;;;;;;;5083489;27;51241;-48
2022/04/16 04:50:55;;;;;;;;;4.75;3.25;;;;;;;;5083076;27;51526;-45
2022/04/16 04:53:39;;;;;;;;;8.50;3.25;;;;;;;;5083150;27;51209;-48
2022/04/16 04:56:24;;;;;;;;;3.75;2.75;;;;;;;;5083148;27;51405;-48
2022/04/16 04:59:08;;;;;;;;;3.00;3.00;;;;;;;;5067240;27;51174;-48
2022/04/16 05:01:52;;;;;;;;;6.75;3.75;;;;;;;;5083278;27;51088;-47
2022/04/16 05:04:37;;;;;;;;;4.25;3.75;;;;;;;;5082599;27;51113;-49
2022/04/16 05:07:21;;;;;;;;;2.75;2.75;;;;;;;;5081329;27;51077;-47
2022/04/16 05:10:06;;;;;;;;;3.00;2.00;;;;;;;;5082904;27;51190;-47
2022/04/16 05:12:50;;;;;;;;;1.75;1.75;;;;;;;;5083028;27;51150;-47
2022/04/16 05:15:35;;;;;;;;;2.25;2.00;;;;;;;;5082528;27;51153;-48
2022/04/16 05:18:19;;;;;;;;;3.00;1.75;;;;;;;;5082829;27;52512;-47
2022/04/16 05:21:04;;;;;;;;;0.75;0.50;;;;;;;;5082789;27;51252;-47
2022/04/16 05:23:48;;;;;;;;;1.00;1.00;;;;;;;;5081855;27;51158;-49
2022/04/16 05:26:33;;;;;;;;;3.75;1.75;;;;;;;;5082477;27;51111;-48
2022/04/16 05:29:17;;;;;;;;;3.00;2.00;;;;;;;;5082482;27;51140;-48
2022/04/16 05:32:01;;;;;;;;;1.50;1.00;;;;;;;;5076371;27;51108;-47
2022/04/16 05:34:45;;;;;;;;;5.50;2.75;;;;;;;;5082349;27;51147;-48
2022/04/16 05:37:30;;;;;;;;;3.00;3.00;;;;;;;;5082663;27;50945;-48
2022/04/16 05:40:14;;;;;;;;;3.25;3.00;;;;;;;;5082214;27;51348;-48
2022/04/16 05:42:59;;;;;;;;;1.75;1.75;;;;;;;;5082372;27;51074;-47
2022/04/16 05:45:44;;;;;;;;;5.25;3.00;;;;;;;;5082147;27;51456;-46
2022/04/16 05:48:28;;;;;;;;;3.50;2.50;;;;;;;;5081880;27;51186;-48
2022/04/16 05:51:14;;;;;;;;;11.00;4.75;;;;;;;;5082549;27;51114;-46
2022/04/16 05:54:00;;;;;;;;;5.75;5.50;;;;;;;;5081717;27;51437;-47
2022/04/16 05:56:44;;;;;;;;;4.00;4.00;;;;;;;;5081732;27;51076;-47
2022/04/16 05:59:28;;;;;;;;;7.00;5.25;;;;;;;;5081764;27;51140;-46
2022/04/16 06:02:13;;;;;;;;;6.00;4.75;;;;;;;;5082322;27;51031;-47
2022/04/16 06:04:57;;;;;;;;;8.50;7.00;;;;;;;;5081475;27;51418;-49
2022/04/16 06:07:42;;;;;;;;;9.00;7.75;;;;;;;;5081587;27;51154;-48
2022/04/16 06:10:26;;;;;;;;;7.50;7.00;;;;;;;;5081772;27;51031;-50
2022/04/16 06:13:11;;;;;;;;;8.50;6.25;;;;;;;;5081549;27;51146;-47
2022/04/16 06:15:56;;;;;;;;;7.25;5.75;;;;;;;;5081586;27;51036;-49
2022/04/16 06:18:40;;;;;;;;;5.00;5.00;;;;;;;;5081291;27;51124;-51
2022/04/16 06:21:25;;;;;;;;;10.00;6.75;;;;;;;;5081594;27;51033;-48
2022/04/16 06:24:09;;;;;;;;;8.00;5.50;;;;;;;;5081145;27;51210;-49
2022/04/16 07:13:59;;;;;;;;;7.50;7.50;;;;;;;;4263990;32;2087525;-49
2022/04/16 07:16:44;;;;;;;;;7.75;6.50;;;;;;;;5077143;27;52135;-49
2022/04/16 07:19:29;;;;;;;;;10.50;8.75;;;;;;;;5076865;27;51247;-49
2022/04/16 07:22:13;;;;;;;;;10.75;10.00;;;;;;;;5077122;27;51114;-50
2022/04/16 07:24:57;;;;;;;;;12.00;10.75;;;;;;;;5076577;27;51115;-48
2022/04/16 07:27:43;;;;;;;;;12.50;10.75;;;;;;;;5076855;27;51626;-49
2022/04/16 07:30:29;;;;;;;;;12.75;12.75;;;;;;;;5076979;27;51102;-48
2022/04/16 07:33:14;;;;;;;;;13.00;11.50;;;;;;;;5076635;27;51450;-49
2022/04/16 07:35:59;;;;;;;;;15.25;13.00;;;;;;;;5076404;27;51108;-48
2022/04/16 07:38:43;;;;;;;;;14.00;14.00;;;;;;;;5076307;27;51038;-48
2022/04/16 07:41:28;;;;;;;;;16.00;13.00;;;;;;;;5076682;27;51082;-49
2022/04/16 07:44:12;;;;;;;;;12.75;10.75;;;;;;;;5076105;27;51060;-50
2022/04/16 07:46:57;;;;;;;;;25.25;20.00;;;;;;;;5094436;27;51547;-51
2022/04/16 07:49:41;;;;;;;;;17.75;17.75;;;;;;;;5096578;27;51455;-48
2022/04/16 07:52:28;;;;;;;;;19.00;17.50;;;;;;;;5096495;27;51067;-49
2022/04/16 07:55:12;;;;;;;;;12.25;12.25;;;;;;;;5096797;27;51057;-47
2022/04/16 07:57:57;;;;;;;;;11.75;11.00;;;;;;;;5096189;27;51431;-51
2022/04/16 08:00:41;;;;;;;;;13.50;11.50;;;;;;;;5096666;27;51055;-49
2022/04/16 08:03:26;;;;;;;;;10.00;10.00;;;;;;;;5096226;27;51076;-48
2022/04/16 08:06:10;;;;;;;;;13.50;12.75;;;;;;;;5096483;27;51235;-49
2022/04/16 08:09:00;;;;;;;;;12.75;12.25;;;;;;;;5096246;27;51019;-48
2022/04/16 08:11:47;;;;;;;;;12.25;12.25;;;;;;;;5095955;27;51134;-50
2022/04/16 08:14:31;;;;;;;;;16.25;14.25;;;;;;;;5085184;27;51066;-49
2022/04/16 08:17:18;;;;;;;;;13.25;12.50;;;;;;;;5082466;27;51264;-50
2022/04/16 08:20:02;;;;;;;;;21.50;16.00;;;;;;;;5082423;27;51101;-50
2022/04/16 08:22:46;;;;;;;;;8.50;6.25;;;;;;;;5082447;27;51461;-50
2022/04/16 08:28:15;;;;;;;;;19.75;18.00;;;;;;;;5082165;27;51065;-46
2022/04/16 08:30:59;;;;;;;;;21.50;18.00;;;;;;;;5082414;27;51096;-51
2022/04/16 08:33:44;;;;;;;;;20.00;15.25;;;;;;;;5081754;27;51158;-47
2022/04/16 08:36:28;;;;;;;;;15.25;15.25;;;;;;;;5081994;27;51098;-47
2022/04/16 08:39:13;;;;;;;;;23.75;21.25;;;;;;;;5082071;27;51550;-49
2022/04/16 08:41:57;;;;;;;;;21.50;20.25;;;;;;;;5080904;27;51678;-53
2022/04/16 08:44:42;;;;;;;;;16.00;14.75;;;;;;;;5062027;28;51102;-48
2022/04/16 08:47:26;;;;;;;;;21.75;20.75;;;;;;;;5061417;28;51044;-49
2022/04/16 08:50:12;;;;;;;;;25.00;19.75;;;;;;;;5061262;28;51534;-46
2022/04/16 08:52:57;;;;;;;;;21.50;17.50;;;;;;;;5061343;28;51449;-49
2022/04/16 08:55:42;;;;;;;;;27.25;25.25;;;;;;;;5061879;28;50995;-47
2022/04/16 08:58:28;;;;;;;;;21.50;19.00;;;;;;;;5061234;28;51070;-47
2022/04/16 09:01:12;;;;;;;;;21.25;18.00;;;;;;;;5059903;28;51359;-49
2022/04/16 09:03:58;;;;;;;;;24.00;19.50;;;;;;;;5060400;28;51057;-47
2022/04/16 09:06:43;;;;;;;;;20.00;18.00;;;;;;;;5061229;28;51188;-47
2022/04/16 09:09:30;;;;;;;;;25.50;23.00;;;;;;;;5061411;28;51145;-49
2022/04/16 09:12:18;;;;;;;;;27.25;24.00;;;;;;;;5060516;28;51134;-50
2022/04/16 09:15:12;;;;;;;;;28.25;23.00;;;;;;;;5069141;27;51618;-48
2022/04/16 09:17:59;;;;;;;;;28.00;22.50;;;;;;;;5081196;27;51078;-47
2022/04/16 09:20:43;;;;;;;;;25.75;23.75;;;;;;;;5081242;27;51060;-47
2022/04/16 09:23:27;;;;;;;;;25.25;21.75;;;;;;;;5080351;27;51140;-48
2022/04/16 09:26:12;;;;;;;;;28.75;25.50;;;;;;;;5062913;27;51637;-47
2022/04/16 09:28:56;;;;;;;;;32.75;26.25;;;;;;;;5060774;28;51249;-47
2022/04/16 09:31:43;;;;;;;;;36.25;32.25;;;;;;;;5080137;27;51131;-47
2022/04/16 09:34:27;;;;;;;;;27.50;25.25;;;;;;;;5081077;27;51000;-47
2022/04/16 09:37:12;;;;;;;;;30.00;28.25;;;;;;;;5080748;27;51161;-47
2022/04/16 09:39:56;;;;;;;;;32.50;28.25;;;;;;;;5081133;27;51061;-48
2022/04/16 09:42:40;;;;;;;;;29.50;27.50;;;;;;;;5060082;28;51415;-47
2022/04/16 09:45:25;;;;;;;;;34.75;30.50;;;;;;;;5060594;28;51099;-46
2022/04/16 09:48:11;;;;;;;;;40.50;33.50;;;;;;;;5060143;28;51125;-46
2022/04/16 09:50:57;;;;;;;;;36.00;32.00;;;;;;;;5060140;28;51149;-49
2022/04/16 09:53:41;;;;;;;;;38.75;30.50;;;;;;;;5059672;28;51669;-48
2022/04/16 09:56:27;;;;;;;;;49.50;40.00;;;;;;;;5059979;28;51133;-46
2022/04/16 09:59:12;;;;;;;;;38.25;32.75;;;;;;;;5060570;28;51169;-51
2022/04/16 10:01:57;;;;;;;;;32.75;28.75;;;;;;;;5060304;28;51381;-51
2022/04/16 10:04:42;;;;;;;;;26.00;25.50;;;;;;;;5062915;27;51514;-52
2022/04/16 10:07:26;;;;;;;;;35.00;32.00;;;;;;;;5080136;27;51152;-49
2022/04/16 10:10:30;;;;;;;;;28.00;24.75;;;;;;;;5080789;27;51108;-52
2022/04/16 10:13:17;;;;;;;;;35.25;30.00;;;;;;;;5080052;27;51134;-49
2022/04/16 10:16:05;;;;;;;;;34.00;29.75;;;;;;;;5080385;27;51094;-49
2022/04/16 10:18:49;;;;;;;;;33.75;29.00;;;;;;;;5059834;28;51330;-49
2022/04/16 10:21:33;;;;;;;;;32.25;27.75;;;;;;;;5059445;28;51215;-51
2022/04/16 10:24:23;;;;;;;;;32.00;27.75;;;;;;;;5075878;27;51148;-50
2022/04/16 10:27:08;;;;;;;;;30.00;26.75;;;;;;;;5064518;27;51443;-47
2022/04/16 10:29:53;;;;;;;;;27.00;25.75;;;;;;;;5080098;27;51076;-52
2022/04/16 10:32:41;;;;;;;;;28.00;24.00;;;;;;;;5079856;27;51228;-47
2022/04/16 10:35:25;;;;;;;;;25.25;24.25;;;;;;;;5080799;27;51067;-49
2022/04/16 10:38:20;;;;;;;;;31.00;26.00;;;;;;;;5079715;27;51378;-51
2022/04/16 10:41:11;;;;;;;;;25.00;25.00;;;;;;;;5079816;27;51167;-49
2022/04/16 10:44:08;;;;;;;;;29.00;26.50;;;;;;;;5068080;27;51461;-48
2022/04/16 10:46:53;;;;;;;;;28.50;26.00;;;;;;;;5058987;28;51152;-45
2022/04/16 10:49:39;;;;;;;;;25.50;25.00;;;;;;;;5052469;28;51041;-45
2022/04/16 10:52:24;;;;;;;;;34.00;30.00;;;;;;;;5059448;28;51521;-48
2022/04/16 10:55:08;;;;;;;;;32.75;29.00;;;;;;;;5072800;27;51446;-46
2022/04/16 10:58:20;;;;;;;;;29.25;24.00;;;;;;;;5079323;27;51128;-47
2022/04/16 11:01:07;;;;;;;;;26.75;24.50;;;;;;;;5079845;28;51158;-48
2022/04/16 11:03:51;;;;;;;;;25.50;25.00;;;;;;;;5079142;28;51089;-48
2022/04/16 11:06:35;;;;;;;;;30.25;26.75;;;;;;;;5079730;28;51089;-49
2022/04/16 11:09:20;;;;;;;;;26.25;23.00;;;;;;;;5073682;28;51149;-46
2022/04/16 11:12:07;;;;;;;;;29.00;26.00;;;;;;;;5062716;28;51136;-49
2022/04/16 11:14:52;;;;;;;;;33.50;29.75;;;;;;;;5069364;28;51096;-50
2022/04/16 11:17:37;;;;;;;;;35.25;29.50;;;;;;;;5059340;28;51107;-48
2022/04/16 11:20:22;;;;;;;;;29.25;28.75;;;;;;;;5059286;28;51234;-50
2022/04/16 11:23:10;;;;;;;;;29.75;28.75;;;;;;;;5058863;28;51644;-48
2022/04/16 11:35:08;;;;;;;;;29.25;24.75;;;;;;;;5078017;28;51370;-49
2022/04/16 11:37:53;;;;;;;;;31.50;26.00;;;;;;;;5079306;28;51358;-51
2022/04/16 11:40:37;;;;;;;;;28.00;23.50;;;;;;;;5079676;28;51166;-50
2022/04/16 11:43:23;;;;;;;;;28.00;27.00;;;;;;;;5078927;28;51058;-48
2022/04/16 11:46:11;;;;;;;;;24.25;24.00;;;;;;;;5079260;28;51564;-47
2022/04/16 11:48:59;;;;;;;;;25.75;23.75;;;;;;;;5080279;27;51183;-51
2022/04/16 11:51:43;;;;;;;;;28.50;26.00;;;;;;;;5083194;27;51159;-48
2022/04/16 11:54:31;;;;;;;;;27.25;25.00;;;;;;;;5068945;27;50981;-47
2022/04/16 11:57:22;;;;;;;;;25.75;21.75;;;;;;;;5062497;28;51027;-49
2022/04/16 12:00:07;;;;;;;;;27.25;26.50;;;;;;;;5061965;28;51214;-50
2022/04/16 12:02:55;;;;;;;;;25.50;25.25;;;;;;;;5062234;28;51179;-46
2022/04/16 12:05:44;;;;;;;;;29.50;26.50;;;;;;;;5062671;28;51053;-51
2022/04/16 12:08:30;;;;;;;;;29.75;26.25;;;;;;;;5062456;28;51232;-49
2022/04/16 12:11:17;;;;;;;;;29.00;26.00;;;;;;;;5062286;28;51678;-46
2022/04/16 12:14:02;;;;;;;;;28.75;27.75;;;;;;;;5062335;28;51106;-48
2022/04/16 12:16:56;;;;;;;;;29.25;24.50;;;;;;;;5062569;28;51109;-49
2022/04/16 12:19:41;;;;;;;;;26.75;23.50;;;;;;;;5062052;28;51609;-50
2022/04/16 12:22:25;;;;;;;;;30.75;27.00;;;;;;;;5081787;27;51178;-51
2022/04/16 12:25:10;;;;;;;;;29.00;25.00;;;;;;;;5082253;27;51554;-50
2022/04/16 13:12:33;;;;;;;;;23.25;17.25;;;;;;;;4335683;31;1750223;-46
2022/04/16 13:15:18;;;;;;;;;26.50;23.25;;;;;;;;5118105;27;51192;-47
2022/04/16 13:18:04;;;;;;;;;18.75;18.75;;;;;;;;5117861;27;51091;-48
2022/04/16 13:20:48;;;;;;;;;24.75;23.25;;;;;;;;5118035;27;51460;-50
2022/04/16 13:23:33;;;;;;;;;28.25;24.75;;;;;;;;5118003;27;52079;-47
2022/04/16 13:26:17;;;;;;;;;42.50;35.00;;;;;;;;5117378;27;50972;-49
2022/04/16 13:29:02;;;;;;;;;27.75;24.25;;;;;;;;5118113;27;51226;-48
2022/04/16 13:31:47;;;;;;;;;24.75;20.75;;;;;;;;5117428;27;51341;-50
2022/04/16 13:34:31;;;;;;;;;22.25;16.00;;;;;;;;5117653;27;51185;-48
2022/04/16 13:37:15;;;;;;;;;30.00;20.50;;;;;;;;5117633;27;50975;-47
2022/04/16 13:43:02;;;;;;;;;20.50;16.50;;;;;;;;5117272;27;51133;-47
2022/04/16 13:45:47;;;;;;;;;17.50;15.75;;;;;;;;5117575;27;51024;-47
2022/04/16 13:48:32;;;;;;;;;16.25;16.25;;;;;;;;5117210;27;51598;-47
2022/04/16 13:51:16;;;;;;;;;26.00;19.50;;;;;;;;5117210;27;51036;-49
2022/04/16 13:54:01;;;;;;;;;25.75;21.25;;;;;;;;5117558;27;51012;-46
2022/04/16 13:56:45;;;;;;;;;15.75;14.50;;;;;;;;5117090;27;51177;-47
2022/04/16 13:59:30;;;;;;;;;18.25;15.75;;;;;;;;5116912;27;51213;-46
2022/04/16 14:02:14;;;;;;;;;24.00;23.75;;;;;;;;5116871;27;51050;-48
2022/04/16 14:08:01;;;;;;;;;16.00;14.50;;;;;;;;5116939;27;51275;-48
2022/04/16 14:10:45;;;;;;;;;18.50;15.25;;;;;;;;5116532;27;51240;-49
2022/04/16 14:13:32;;;;;;;;;15.25;14.50;;;;;;;;5102823;27;51517;-47
2022/04/16 14:16:17;;;;;;;;;18.75;15.25;;;;;;;;5103010;27;51151;-46
2022/04/16 14:19:02;;;;;;;;;19.00;17.50;;;;;;;;5103323;27;51055;-46
2022/04/16 14:21:46;;;;;;;;;17.00;14.00;;;;;;;;5102501;27;51599;-47
2022/04/16 14:24:30;;;;;;;;;21.00;17.00;;;;;;;;5102423;27;51152;-47
2022/04/16 14:27:16;;;;;;;;;17.75;17.75;;;;;;;;5102719;27;51141;-47
2022/04/16 14:30:00;;;;;;;;;21.75;20.00;;;;;;;;5102775;27;51160;-49
2022/04/16 14:32:44;;;;;;;;;18.25;18.00;;;;;;;;5102417;27;51402;-47
2022/04/16 14:35:29;;;;;;;;;21.00;18.50;;;;;;;;5100102;27;51096;-46
2022/04/16 14:38:13;;;;;;;;;21.50;20.25;;;;;;;;5102706;27;51556;-47
2022/04/16 14:41:09;;;;;;;;;16.00;14.00;;;;;;;;5102335;27;51035;-48
2022/04/16 14:43:58;;;;;;;;;19.25;17.25;;;;;;;;5102671;27;51012;-48
2022/04/16 14:46:42;;;;;;;;;21.00;17.00;;;;;;;;5101969;27;51359;-45
2022/04/16 14:49:27;;;;;;;;;19.50;18.50;;;;;;;;5102764;27;51763;-46
2022/04/16 14:52:11;;;;;;;;;21.00;16.75;;;;;;;;5102349;27;51084;-45
2022/04/16 14:54:57;;;;;;;;;18.00;16.50;;;;;;;;5102681;27;51128;-50
2022/04/16 14:57:41;;;;;;;;;17.25;14.50;;;;;;;;5099518;27;51709;-49
2022/04/16 15:00:25;;;;;;;;;17.25;16.00;;;;;;;;5102253;27;51110;-52
2022/04/16 15:03:09;;;;;;;;;19.75;15.00;;;;;;;;5102349;27;51432;-50
2022/04/16 15:05:55;;;;;;;;;15.00;15.00;;;;;;;;5102153;27;51536;-50
2022/04/16 15:08:40;;;;;;;;;14.75;12.50;;;;;;;;5102591;27;51058;-51
2022/04/16 15:11:24;;;;;;;;;16.00;14.00;;;;;;;;5102158;27;51447;-52
2022/04/16 15:14:08;;;;;;;;;13.00;12.00;;;;;;;;5101762;27;51416;-48
2022/04/16 15:16:53;;;;;;;;;14.75;11.75;;;;;;;;5101666;27;51046;-51
2022/04/16 15:19:37;;;;;;;;;14.50;13.50;;;;;;;;5102041;27;50996;-51
2022/04/16 15:22:22;;;;;;;;;17.75;13.75;;;;;;;;5086313;27;51438;-51
2022/04/16 15:25:07;;;;;;;;;14.75;11.75;;;;;;;;5100803;27;51121;-51
2022/04/16 15:27:52;;;;;;;;;13.50;12.25;;;;;;;;5101777;27;51200;-51
2022/04/16 15:30:36;;;;;;;;;14.75;14.25;;;;;;;;5101525;27;51093;-49
2022/04/16 15:33:20;;;;;;;;;15.25;14.00;;;;;;;;5102257;27;51015;-49
2022/04/16 15:36:05;;;;;;;;;16.50;14.75;;;;;;;;5101331;27;51152;-47
2022/04/16 15:38:49;;;;;;;;;15.75;14.25;;;;;;;;5101641;27;51387;-50
2022/04/16 15:41:33;;;;;;;;;12.25;11.00;;;;;;;;5101220;27;51092;-51
2022/04/16 15:44:18;;;;;;;;;16.50;13.75;;;;;;;;5101599;27;51225;-49
2022/04/16 15:47:02;;;;;;;;;16.00;12.50;;;;;;;;5101125;27;51124;-48
2022/04/16 15:49:47;;;;;;;;;14.00;13.00;;;;;;;;5101524;27;51196;-52
2022/04/16 15:52:31;;;;;;;;;15.00;15.00;;;;;;;;5101444;27;51506;-48
2022/04/16 15:55:15;;;;;;;;;13.00;13.00;;;;;;;;5100907;27;51061;-49
2022/04/16 15:58:00;;;;;;;;;13.25;13.25;;;;;;;;5101122;27;51066;-50
2022/04/16 16:00:45;;;;;;;;;12.00;12.00;;;;;;;;5099270;27;51431;-48
2022/04/16 16:03:29;;;;;;;;;10.75;10.75;;;;;;;;5101246;27;51148;-47
2022/04/16 16:06:13;;;;;;;;;14.25;11.25;;;;;;;;5100732;27;51059;-47
2022/04/16 16:08:58;;;;;;;;;14.25;13.75;;;;;;;;5101421;27;51116;-48
2022/04/16 16:11:42;;;;;;;;;11.25;10.50;;;;;;;;5098493;27;51211;-47
2022/04/16 16:14:26;;;;;;;;;14.75;11.25;;;;;;;;5098235;27;51311;-49
2022/04/16 16:17:11;;;;;;;;;12.50;10.50;;;;;;;;5098462;27;51144;-50
2022/04/16 16:19:55;;;;;;;;;15.50;13.50;;;;;;;;5097929;27;51963;-49
2022/04/16 16:22:40;;;;;;;;;10.50;9.25;;;;;;;;5097772;27;51217;-48
2022/04/16 16:25:24;;;;;;;;;10.75;10.00;;;;;;;;5098068;27;51476;-48
2022/04/16 16:28:09;;;;;;;;;16.00;13.50;;;;;;;;5098574;27;51080;-49
2022/04/16 16:30:53;;;;;;;;;12.50;10.50;;;;;;;;5098689;27;51172;-50
2022/04/16 16:33:38;;;;;;;;;8.00;8.00;;;;;;;;5098988;27;51016;-48
2022/04/16 16:36:23;;;;;;;;;11.25;9.25;;;;;;;;5099996;27;51069;-50
2022/04/16 16:39:07;;;;;;;;;8.75;8.00;;;;;;;;5100338;27;51028;-48
2022/04/16 16:41:52;;;;;;;;;11.75;7.50;;;;;;;;5100465;27;51149;-47
2022/04/16 16:44:37;;;;;;;;;9.75;9.00;;;;;;;;5100210;27;51113;-48
2022/04/16 16:47:21;;;;;;;;;11.25;10.50;;;;;;;;5100331;27;51187;-50
2022/04/16 16:50:06;;;;;;;;;10.00;7.25;;;;;;;;5100208;27;51088;-47
2022/04/16 16:52:50;;;;;;;;;14.25;14.00;;;;;;;;5100560;27;50987;-48
2022/04/16 16:55:35;;;;;;;;;9.00;9.00;;;;;;;;5100098;27;51106;-49
2022/04/16 16:58:19;;;;;;;;;11.50;10.75;;;;;;;;5100463;27;52131;-48
2022/04/16 17:01:04;;;;;;;;;12.25;8.00;;;;;;;;5100259;27;51090;-49
2022/04/16 17:06:51;;;;;;;;;13.50;11.00;;;;;;;;5100380;27;51134;-48
2022/04/16 17:09:35;;;;;;;;;13.75;11.00;;;;;;;;5099898;27;51111;-47
2022/04/16 17:12:20;;;;;;;;;5.00;4.25;;;;;;;;5100101;27;51054;-49
2022/04/16 17:21:11;;;;;;;;;11.00;11.00;;;;;;;;5099732;27;51148;-51
2022/04/16 17:23:55;;;;;;;;;13.75;12.00;;;;;;;;5100301;27;51051;-51
2022/04/16 17:26:39;;;;;;;;;14.00;13.00;;;;;;;;5099946;27;51571;-49
2022/04/16 17:29:24;;;;;;;;;20.25;13.75;;;;;;;;5099743;27;51888;-50
2022/04/16 17:32:08;;;;;;;;;12.00;11.00;;;;;;;;5100065;27;51400;-51
2022/04/16 17:34:53;;;;;;;;;14.00;12.00;;;;;;;;5099972;27;51231;-50
2022/04/16 17:37:37;;;;;;;;;13.50;13.00;;;;;;;;5099954;27;51225;-51
2022/04/16 17:40:22;;;;;;;;;15.75;11.75;;;;;;;;5099724;27;51104;-52
2022/04/16 17:43:09;;;;;;;;;15.00;13.75;;;;;;;;5100029;27;51065;-51
2022/04/16 17:45:54;;;;;;;;;11.00;11.00;;;;;;;;5099293;27;51131;-50
2022/04/16 17:48:38;;;;;;;;;16.50;14.25;;;;;;;;5103118;27;51330;-51
2022/04/16 17:51:23;;;;;;;;;12.75;12.25;;;;;;;;5103336;27;51041;-48
2022/04/16 17:54:07;;;;;;;;;13.00;10.75;;;;;;;;5103562;27;51119;-50
2022/04/16 17:56:51;;;;;;;;;11.50;10.50;;;;;;;;5103476;27;51366;-47
2022/04/16 17:59:39;;;;;;;;;14.00;10.75;;;;;;;;5102924;27;51131;-50
2022/04/16 18:02:23;;;;;;;;;10.75;8.00;;;;;;;;5103639;27;51019;-50
2022/04/16 18:05:08;;;;;;;;;8.50;8.00;;;;;;;;5103344;27;51028;-53
2022/04/16 18:07:52;;;;;;;;;16.25;9.00;;;;;;;;5103249;27;51595;-49
2022/04/16 18:10:37;;;;;;;;;5.00;5.00;;;;;;;;5103006;27;51220;-48
2022/04/16 18:13:21;;;;;;;;;10.00;7.75;;;;;;;;5103751;27;51508;-46
2022/04/16 18:16:06;;;;;;;;;7.25;6.25;;;;;;;;5103148;27;51474;-49
2022/04/16 18:18:50;;;;;;;;;9.00;6.00;;;;;;;;5102979;27;51138;-48
2022/04/16 18:21:35;;;;;;;;;14.25;10.25;;;;;;;;5103040;27;51463;-50